createdAt,value
2019-04-05T00:01:26.734Z,56.85
2019-04-05T00:03:57.600Z,56.84
2019-04-05T00:06:28.404Z,57.07
2019-04-05T00:08:59.087Z,57.15
2019-04-05T00:11:30.292Z,57.32
2019-04-05T00:14:01.206Z,57.32
2019-04-05T00:16:33.572Z,57.49
2019-04-05T00:19:04.341Z,57.63
2019-04-05T00:21:35.123Z,57.84
2019-04-05T00:24:05.997Z,57.92
2019-04-05T00:26:37.224Z,58.26
2019-04-05T00:29:07.931Z,58.44
2019-04-05T00:31:39.595Z,58.76
2019-04-05T00:34:10.298Z,58.65
2019-04-05T00:36:40.997Z,58.94
2019-04-05T00:39:11.865Z,58.90
2019-04-05T00:41:42.346Z,58.74
2019-04-05T00:44:13.203Z,59.01
2019-04-05T00:46:44.838Z,59.02
2019-04-05T00:49:15.830Z,58.95
2019-04-05T00:51:46.550Z,59.00
2019-04-05T00:54:17.102Z,58.83
2019-04-05T00:56:47.751Z,58.77
2019-04-05T00:59:18.617Z,58.85
2019-04-05T01:01:49.710Z,58.68
2019-04-05T01:04:20.685Z,58.62
2019-04-05T01:06:51.438Z,58.67
2019-04-05T01:09:22.502Z,58.59
2019-04-05T01:11:53.610Z,58.42
2019-04-05T01:14:26.399Z,58.35
2019-04-05T01:16:57.986Z,58.33
2019-04-05T01:19:31.952Z,58.43
2019-04-05T01:22:05.980Z,58.33
2019-04-05T01:24:36.716Z,58.37
2019-04-05T01:27:09.412Z,58.37
2019-04-05T01:29:40.283Z,58.31
2019-04-05T01:32:10.936Z,58.39
2019-04-05T01:34:41.963Z,58.45
2019-04-05T01:37:12.994Z,58.49
2019-04-05T01:39:43.807Z,58.50
2019-04-05T01:42:14.852Z,58.43
2019-04-05T01:44:45.840Z,58.57
2019-04-05T01:47:16.482Z,58.58
2019-04-05T01:49:47.424Z,58.69
2019-04-05T01:52:18.838Z,58.61
2019-04-05T01:54:49.709Z,58.54
2019-04-05T01:57:20.499Z,58.55
2019-04-05T01:59:51.315Z,58.55
2019-04-05T02:02:21.775Z,58.44
2019-04-05T02:04:52.864Z,58.61
2019-04-05T02:07:25.274Z,58.75
2019-04-05T02:09:56.339Z,58.98
2019-04-05T02:12:27.543Z,59.15
2019-04-05T02:14:58.369Z,58.97
2019-04-05T02:17:29.265Z,59.06
2019-04-05T02:20:00.109Z,59.14
2019-04-05T02:22:30.791Z,59.26
2019-04-05T02:25:01.400Z,59.41
2019-04-05T02:27:32.503Z,59.58
2019-04-05T02:30:03.380Z,59.62
2019-04-05T02:32:34.031Z,59.78
2019-04-05T02:35:04.936Z,59.70
2019-04-05T02:37:35.768Z,59.80
2019-04-05T02:40:11.831Z,60.23
2019-04-05T02:42:45.019Z,60.30
2019-04-05T02:45:19.320Z,60.31
2019-04-05T02:47:53.569Z,60.51
2019-04-05T02:50:27.255Z,60.60
2019-04-05T02:53:01.661Z,60.62
2019-04-05T02:55:33.223Z,60.54
2019-04-05T02:58:06.157Z,60.54
2019-04-05T03:00:37.561Z,60.64
2019-04-05T03:03:08.610Z,60.59
2019-04-05T03:05:40.332Z,60.66
2019-04-05T03:08:11.212Z,60.76
2019-04-05T03:11:19.949Z,60.87
2019-04-05T03:13:57.220Z,60.69
2019-04-05T03:16:41.162Z,60.70
2019-04-05T03:19:13.440Z,60.84
2019-04-05T03:21:47.132Z,60.95
2019-04-05T03:24:21.335Z,60.92
2019-04-05T03:26:59.879Z,60.92
2019-04-05T03:29:32.185Z,61.05
2019-04-05T03:32:04.405Z,61.08
2019-04-05T03:34:37.324Z,61.16
2019-04-05T03:37:08.193Z,61.30
2019-04-05T03:39:40.580Z,61.33
2019-04-05T03:42:11.534Z,61.42
2019-04-05T03:44:42.689Z,61.85
2019-04-05T03:47:14.053Z,61.84
2019-04-05T03:49:45.886Z,61.64
2019-04-05T03:52:16.809Z,61.68
2019-04-05T03:54:47.146Z,62.72
2019-04-05T03:57:18.100Z,62.37
2019-04-05T03:59:48.728Z,62.09
2019-04-05T04:02:19.284Z,62.00
2019-04-05T04:04:50.177Z,62.25
2019-04-05T04:07:21.179Z,62.23
2019-04-05T04:09:52.024Z,61.91
2019-04-05T04:12:22.596Z,61.92
2019-04-05T04:14:55.187Z,61.85
2019-04-05T04:17:25.732Z,61.93
2019-04-05T04:19:56.490Z,61.94
2019-04-05T04:22:31.456Z,62.16
2019-04-05T04:25:02.435Z,62.33
2019-04-05T04:27:33.757Z,62.17
2019-04-05T04:30:04.648Z,62.13
2019-04-05T04:32:35.918Z,62.48
2019-04-05T04:35:06.802Z,62.76
2019-04-05T04:37:41.604Z,62.66
2019-04-05T04:40:14.181Z,62.67
2019-04-05T04:42:44.715Z,62.69
2019-04-05T04:45:16.112Z,62.56
2019-04-05T04:47:46.987Z,62.11
2019-04-05T04:50:17.903Z,62.33
2019-04-05T04:52:48.963Z,61.97
2019-04-05T04:55:21.286Z,62.12
2019-04-05T04:57:52.889Z,62.10
2019-04-05T05:00:26.335Z,62.05
2019-04-05T05:02:58.216Z,62.02
2019-04-05T05:05:30.104Z,61.72
2019-04-05T05:08:01.127Z,61.71
2019-04-05T05:10:34.095Z,61.45
2019-04-05T05:13:05.204Z,61.59
2019-04-05T05:15:37.366Z,61.54
2019-04-05T05:18:10.879Z,61.64
2019-04-05T05:20:43.552Z,61.50
2019-04-05T05:23:16.421Z,61.56
2019-04-05T05:25:47.624Z,61.52
2019-04-05T05:28:18.735Z,61.60
2019-04-05T05:31:10.607Z,61.32
2019-04-05T05:33:41.949Z,61.28
2019-04-05T05:36:12.969Z,61.14
2019-04-05T05:38:46.640Z,61.02
2019-04-05T05:41:17.221Z,60.88
2019-04-05T05:43:48.141Z,60.86
2019-04-05T05:46:18.851Z,60.67
2019-04-05T05:48:49.632Z,60.71
2019-04-05T05:51:20.943Z,60.48
2019-04-05T05:53:51.973Z,60.19
2019-04-05T05:56:22.563Z,59.75
2019-04-05T05:58:55.324Z,59.61
2019-04-05T06:01:25.908Z,59.49
2019-04-05T06:03:56.807Z,59.35
2019-04-05T06:06:27.485Z,59.33
2019-04-05T06:08:58.269Z,59.41
2019-04-05T06:11:28.777Z,59.31
2019-04-05T06:13:59.550Z,59.42
2019-04-05T06:16:30.504Z,58.85
2019-04-05T06:19:01.109Z,58.72
2019-04-05T06:21:31.798Z,58.53
2019-04-05T06:24:05.157Z,58.08
2019-04-05T06:26:35.187Z,58.10
2019-04-05T06:29:06.377Z,57.85
2019-04-05T06:31:37.002Z,57.51
2019-04-05T06:34:07.705Z,56.65
2019-04-05T06:36:38.398Z,56.58
2019-04-05T06:39:09.825Z,57.14
2019-04-05T06:41:40.580Z,56.37
2019-04-05T06:44:11.414Z,56.63
2019-04-05T06:46:42.340Z,55.72
2019-04-05T06:49:13.027Z,55.06
2019-04-05T06:51:43.787Z,55.57
2019-04-05T06:54:14.385Z,55.53
2019-04-05T06:56:45.035Z,55.11
2019-04-05T06:59:19.150Z,54.66
2019-04-05T07:01:48.172Z,54.18
2019-04-05T07:04:19.230Z,54.84
2019-04-05T07:06:49.995Z,54.45
2019-04-05T07:09:21.831Z,53.76
2019-04-05T07:11:52.479Z,52.93
2019-04-05T07:14:23.077Z,52.76
2019-04-05T07:16:54.507Z,52.78
2019-04-05T07:19:25.295Z,52.18
2019-04-05T07:21:56.177Z,52.83
2019-04-05T07:24:26.819Z,52.90
2019-04-05T07:26:57.685Z,51.97
2019-04-05T07:29:28.486Z,52.06
2019-04-05T07:31:59.304Z,51.84
2019-04-05T07:34:30.146Z,51.32
2019-04-05T07:37:01.063Z,50.66
2019-04-05T07:39:31.890Z,50.69
2019-04-05T07:42:02.616Z,50.63
2019-04-05T07:44:33.299Z,50.50
2019-04-05T07:47:04.172Z,50.13
2019-04-05T07:49:34.902Z,50.40
2019-04-05T07:52:05.917Z,50.05
2019-04-05T07:54:36.393Z,49.84
2019-04-05T07:57:07.282Z,49.95
2019-04-05T07:59:38.118Z,50.78
2019-04-05T08:02:08.950Z,49.53
2019-04-05T08:04:39.597Z,50.21
2019-04-05T08:07:10.834Z,48.93
2019-04-05T08:09:41.993Z,49.43
2019-04-05T08:12:13.333Z,49.45
2019-04-05T08:14:44.846Z,49.00
2019-04-05T08:17:15.718Z,49.26
2019-04-05T08:19:47.389Z,49.61
2019-04-05T08:22:17.929Z,48.94
2019-04-05T08:24:48.546Z,49.35
2019-04-05T08:27:19.277Z,48.77
2019-04-05T08:29:49.986Z,49.11
2019-04-05T08:32:20.530Z,48.59
2019-04-05T08:34:51.073Z,47.76
2019-04-05T08:37:21.875Z,47.77
2019-04-05T08:39:54.291Z,46.88
2019-04-05T08:42:25.693Z,46.16
2019-04-05T08:44:57.439Z,46.74
2019-04-05T08:47:28.270Z,46.74
2019-04-05T08:49:58.943Z,46.73
2019-04-05T08:52:29.870Z,46.46
2019-04-05T08:55:00.583Z,45.87
2019-04-05T08:57:31.419Z,45.83
2019-04-05T09:00:02.319Z,45.72
2019-04-05T09:02:35.444Z,46.12
2019-04-05T09:05:26.587Z,45.08
2019-04-05T09:07:58.287Z,44.61
2019-04-05T09:10:29.305Z,43.51
2019-04-05T09:13:01.287Z,44.00
2019-04-05T09:15:32.245Z,44.23
2019-04-05T09:18:03.027Z,43.57
2019-04-05T09:20:33.456Z,42.76
2019-04-05T09:23:04.113Z,43.35
2019-04-05T09:25:35.131Z,43.04
2019-04-05T09:28:05.848Z,42.56
2019-04-05T09:30:36.795Z,42.94
2019-04-05T09:33:07.527Z,42.91
2019-04-05T09:35:38.995Z,42.95
2019-04-05T09:38:09.839Z,41.95
2019-04-05T09:40:42.761Z,41.95
2019-04-05T09:43:14.664Z,42.30
2019-04-05T09:45:45.402Z,42.68
2019-04-05T09:48:36.294Z,41.80
2019-04-05T09:51:11.083Z,41.99
2019-04-05T09:53:41.560Z,40.77
2019-04-05T09:56:13.463Z,40.73
2019-04-05T09:58:43.739Z,40.18
2019-04-05T10:01:13.919Z,40.84
2019-04-05T10:03:44.572Z,41.01
2019-04-05T10:06:16.512Z,40.87
2019-04-05T10:08:46.830Z,40.54
2019-04-05T10:11:17.163Z,40.43
2019-04-05T10:13:47.446Z,40.13
2019-04-05T10:16:17.604Z,40.02
2019-04-05T10:18:47.907Z,39.84
2019-04-05T10:21:18.281Z,39.30
2019-04-05T10:23:48.553Z,38.85
2019-04-05T10:26:19.070Z,39.13
2019-04-05T10:28:49.289Z,39.46
2019-04-05T10:31:19.716Z,39.17
2019-04-05T10:33:50.062Z,39.27
2019-04-05T10:36:20.471Z,37.84
2019-04-05T10:38:51.671Z,38.05
2019-04-05T10:41:23.275Z,36.94
2019-04-05T10:43:53.458Z,37.57
2019-04-05T10:46:23.986Z,37.49
2019-04-05T10:48:54.291Z,37.07
2019-04-05T10:51:24.548Z,37.70
2019-04-05T10:53:54.755Z,38.31
2019-04-05T10:56:26.992Z,38.00
2019-04-05T10:58:58.367Z,37.62
2019-04-05T11:01:29.204Z,36.73
2019-04-05T11:03:59.535Z,37.64
2019-04-05T11:06:29.746Z,36.85
2019-04-05T11:09:01.141Z,37.51
2019-04-05T11:11:33.471Z,36.30
2019-04-05T11:14:13.521Z,35.23
2019-04-05T11:16:39.234Z,35.81
2019-04-05T11:19:13.104Z,35.83
2019-04-05T11:21:43.496Z,35.87
2019-04-05T11:24:13.693Z,36.10
2019-04-05T11:26:44.066Z,36.04
2019-04-05T11:29:14.884Z,36.07
2019-04-05T11:31:56.317Z,36.59
2019-04-05T11:34:17.679Z,36.36
2019-04-05T11:36:48.014Z,36.37
2019-04-05T11:39:19.036Z,36.85
2019-04-05T11:41:50.690Z,37.21
2019-04-05T11:44:21.048Z,37.53
2019-04-05T11:46:51.618Z,37.60
2019-04-05T11:49:23.424Z,37.81
2019-04-05T11:51:53.968Z,38.08
2019-04-05T11:54:24.218Z,38.04
2019-04-05T11:56:56.853Z,38.92
2019-04-05T11:59:27.897Z,38.87
2019-04-05T12:02:23.497Z,38.98
2019-04-05T12:04:56.582Z,39.02
2019-04-05T12:07:27.498Z,40.01
2019-04-05T12:09:58.069Z,40.13
2019-04-05T12:12:28.584Z,39.82
2019-04-05T12:15:01.444Z,40.29
2019-04-05T12:17:35.003Z,40.28
2019-04-05T12:20:13.140Z,40.50
2019-04-05T12:22:47.651Z,40.56
2019-04-05T12:25:21.017Z,40.53
2019-04-05T12:27:51.256Z,40.88
2019-04-05T12:30:24.470Z,40.60
2019-04-05T12:32:54.713Z,40.77
2019-04-05T12:35:25.076Z,41.00
2019-04-05T12:37:56.155Z,40.73
2019-04-05T12:40:27.165Z,41.14
2019-04-05T12:42:57.384Z,40.54
2019-04-05T12:45:27.575Z,40.49
2019-04-05T12:47:59.161Z,40.67
2019-04-05T12:50:30.546Z,40.70
2019-04-05T12:53:00.754Z,41.59
2019-04-05T12:55:31.079Z,41.91
2019-04-05T12:58:01.281Z,42.15
2019-04-05T13:00:31.559Z,41.95
2019-04-05T13:03:01.818Z,42.35
2019-04-05T13:05:32.112Z,42.15
2019-04-05T13:08:02.343Z,42.10
2019-04-05T13:10:33.384Z,42.16
2019-04-05T13:13:03.943Z,41.87
2019-04-05T13:15:34.126Z,41.64
2019-04-05T13:18:04.452Z,41.86
2019-04-05T13:20:34.658Z,41.42
2019-04-05T13:23:06.702Z,41.46
2019-04-05T13:25:38.845Z,41.50
2019-04-05T13:28:13.598Z,41.51
2019-04-05T13:30:40.739Z,41.71
2019-04-05T13:33:10.951Z,41.46
2019-04-05T13:35:41.182Z,41.22
2019-04-05T13:38:11.375Z,41.32
2019-04-05T13:40:41.560Z,41.40
2019-04-05T13:43:11.730Z,41.66
2019-04-05T13:45:42.145Z,41.80
2019-04-05T13:48:12.401Z,41.38
2019-04-05T13:50:42.657Z,41.62
2019-04-05T13:53:12.934Z,41.51
2019-04-05T13:55:47.322Z,41.46
2019-04-05T13:58:17.105Z,41.62
2019-04-05T14:00:48.869Z,41.73
2019-04-05T14:03:20.880Z,41.66
2019-04-05T14:05:53.993Z,41.72
2019-04-05T14:08:23.077Z,41.74
2019-04-05T14:10:53.282Z,41.87
2019-04-05T14:13:23.694Z,42.00
2019-04-05T14:15:56.684Z,41.75
2019-04-05T14:18:26.944Z,41.96
2019-04-05T14:20:57.109Z,42.08
2019-04-05T14:23:27.960Z,42.37
2019-04-05T14:25:59.815Z,42.45
2019-04-05T14:28:30.095Z,42.79
2019-04-05T14:31:02.443Z,43.27
2019-04-05T14:33:34.008Z,43.52
2019-04-05T14:36:04.613Z,43.88
2019-04-05T14:38:35.016Z,44.09
2019-04-05T14:41:05.395Z,44.37
2019-04-05T14:43:37.832Z,44.72
2019-04-05T14:46:07.966Z,45.22
2019-04-05T14:48:38.260Z,46.10
2019-04-05T14:51:08.462Z,46.55
2019-04-05T14:53:39.787Z,46.77
2019-04-05T14:56:09.940Z,47.37
2019-04-05T14:58:40.129Z,47.90
2019-04-05T15:01:10.780Z,48.19
2019-04-05T15:03:43.274Z,48.51
2019-04-05T15:06:13.474Z,48.59
2019-04-05T15:08:43.740Z,48.97
2019-04-05T15:11:14.033Z,49.28
2019-04-05T15:13:45.086Z,49.77
2019-04-05T15:16:15.468Z,49.90
2019-04-05T15:18:45.767Z,50.24
2019-04-05T15:21:16.081Z,50.27
2019-04-05T15:23:47.437Z,50.71
2019-04-05T15:26:20.376Z,51.04
2019-04-05T15:28:54.606Z,51.40
2019-04-05T15:31:25.830Z,51.54
2019-04-05T15:33:57.793Z,52.42
2019-04-05T15:36:31.512Z,52.86
2019-04-05T15:39:02.003Z,53.04
2019-04-05T15:41:33.969Z,52.77
2019-04-05T15:44:05.843Z,52.82
2019-04-05T15:46:37.685Z,52.58
2019-04-05T15:49:08.064Z,52.91
2019-04-05T15:51:38.269Z,53.14
2019-04-05T15:54:08.459Z,53.02
2019-04-05T15:56:39.189Z,53.13
2019-04-05T15:59:09.408Z,52.94
2019-04-05T16:01:39.785Z,52.71
2019-04-05T16:04:10.039Z,52.40
2019-04-05T16:06:40.197Z,52.21
2019-04-05T16:09:17.186Z,52.56
2019-04-05T16:11:48.085Z,52.82
2019-04-05T16:14:18.329Z,52.72
2019-04-05T16:16:48.574Z,52.86
2019-04-05T16:19:18.785Z,52.89
2019-04-05T16:21:49.387Z,52.84
2019-04-05T16:24:19.602Z,53.31
2019-04-05T16:26:51.845Z,53.45
2019-04-05T16:29:30.711Z,53.57
2019-04-05T16:32:05.584Z,53.78
2019-04-05T16:34:35.787Z,54.12
2019-04-05T16:37:06.486Z,54.28
2019-04-05T16:39:36.672Z,53.87
2019-04-05T16:42:10.015Z,54.15
2019-04-05T16:44:41.655Z,53.47
2019-04-05T16:47:12.623Z,53.20
2019-04-05T16:49:54.806Z,52.99
2019-04-05T16:52:26.937Z,53.17
2019-04-05T16:55:02.422Z,53.27
2019-04-05T16:57:40.101Z,53.20
2019-04-05T17:00:18.272Z,53.30
2019-04-05T17:02:49.771Z,53.12
2019-04-05T17:05:26.704Z,53.09
2019-04-05T17:08:01.539Z,53.05
2019-04-05T17:10:33.415Z,53.27
2019-04-05T17:13:05.022Z,53.13
2019-04-05T17:15:42.106Z,53.15
2019-04-05T17:18:17.264Z,53.19
2019-04-05T17:20:57.829Z,53.38
2019-04-05T17:23:33.383Z,53.45
2019-04-05T17:26:11.390Z,54.44
2019-04-05T17:28:46.412Z,54.38
2019-04-05T17:31:17.256Z,54.35
2019-04-05T17:33:49.898Z,53.79
2019-04-05T17:36:23.311Z,53.70
2019-04-05T17:38:55.954Z,54.29
2019-04-05T17:41:29.349Z,54.51
2019-04-05T17:44:02.065Z,54.49
2019-04-05T17:46:34.269Z,54.17
2019-04-05T17:49:06.006Z,54.14
2019-04-05T17:51:38.184Z,54.35
2019-04-05T17:54:08.444Z,54.21
2019-04-05T17:56:41.431Z,54.11
2019-04-05T17:59:14.985Z,53.18
2019-04-05T18:01:47.504Z,52.56
2019-04-05T18:04:17.680Z,52.82
2019-04-05T18:06:47.916Z,53.06
2019-04-05T18:09:19.028Z,53.20
2019-04-05T18:11:49.337Z,53.17
2019-04-05T18:14:19.671Z,53.16
2019-04-05T18:16:50.286Z,53.76
2019-04-05T18:19:22.558Z,53.81
2019-04-05T18:21:52.799Z,53.85
2019-04-05T18:24:22.973Z,53.76
2019-04-05T18:26:53.344Z,53.66
2019-04-05T18:29:23.514Z,53.61
2019-04-05T18:31:55.627Z,53.48
2019-04-05T18:34:27.603Z,53.87
2019-04-05T18:37:01.927Z,54.18
2019-04-05T18:39:34.301Z,54.90
2019-04-05T18:42:11.750Z,54.65
2019-04-05T18:44:43.686Z,54.94
2019-04-05T18:47:17.005Z,54.82
2019-04-05T18:50:02.481Z,54.73
2019-04-05T18:52:23.829Z,54.52
2019-04-05T18:54:54.044Z,54.32
2019-04-05T18:57:24.255Z,54.48
2019-04-05T18:59:54.472Z,54.66
2019-04-05T19:02:25.744Z,54.67
2019-04-05T19:04:56.248Z,54.77
2019-04-05T19:07:28.270Z,54.70
2019-04-05T19:09:58.449Z,54.68
2019-04-05T19:12:28.798Z,54.97
2019-04-05T19:14:59.986Z,54.83
2019-04-05T19:17:30.679Z,55.17
2019-04-05T19:20:00.867Z,54.74
2019-04-05T19:22:31.118Z,54.76
2019-04-05T19:25:04.805Z,54.72
2019-04-05T19:27:34.040Z,54.70
2019-04-05T19:50:29.728Z,55.98
2019-04-05T19:52:59.896Z,56.20
2019-04-05T19:55:31.903Z,55.95
2019-04-05T19:58:02.071Z,55.90
2019-04-05T20:00:32.396Z,56.19
2019-04-05T20:03:02.622Z,56.02
2019-04-05T20:05:32.879Z,56.09
2019-04-05T20:08:03.066Z,56.46
2019-04-05T20:10:33.255Z,56.74
2019-04-05T20:13:03.441Z,56.74
2019-04-05T20:15:33.712Z,57.29
2019-04-05T20:18:03.910Z,57.49
2019-04-05T20:20:34.805Z,58.90
2019-04-05T20:23:05.005Z,59.04
2019-04-05T20:25:35.205Z,60.67
2019-04-05T20:28:07.657Z,60.74
2019-04-05T20:30:37.903Z,60.62
2019-04-05T20:33:08.107Z,61.73
2019-04-05T20:35:38.389Z,61.44
2019-04-05T20:38:10.632Z,61.44
2019-04-05T20:40:41.079Z,63.02
2019-04-05T20:43:11.253Z,63.44
2019-04-05T20:45:41.471Z,63.44
2019-04-05T20:48:12.547Z,64.17
2019-04-05T20:50:42.723Z,64.02
2019-04-05T20:53:13.485Z,63.60
2019-04-05T20:55:43.655Z,64.23
2019-04-05T20:58:14.056Z,64.16
2019-04-05T21:00:44.269Z,64.87
2019-04-05T21:03:14.446Z,65.06
2019-04-05T21:05:44.676Z,64.71
2019-04-05T21:08:14.901Z,65.68
2019-04-05T21:10:45.126Z,65.17
2019-04-05T21:13:15.315Z,64.66
2019-04-05T21:15:46.464Z,64.91
2019-04-05T21:18:16.754Z,65.57
2019-04-05T21:20:47.718Z,65.09
2019-04-05T21:23:17.905Z,64.77
2019-04-05T21:25:48.094Z,64.55
2019-04-05T21:28:20.582Z,64.37
2019-04-05T21:30:50.750Z,64.78
2019-04-05T21:33:20.963Z,65.07
2019-04-05T21:35:51.182Z,64.83
2019-04-05T21:38:24.437Z,64.79
2019-04-05T21:40:54.763Z,65.23
2019-04-05T21:43:25.708Z,65.86
2019-04-05T21:45:57.835Z,66.21
2019-04-05T21:48:30.492Z,66.24
2019-04-05T21:51:00.351Z,66.28
2019-04-05T21:53:30.814Z,66.50
2019-04-05T21:56:03.613Z,66.48
2019-04-05T21:58:33.749Z,67.28
2019-04-05T22:01:08.348Z,66.92
2019-04-05T22:03:39.479Z,66.98
2019-04-05T22:06:10.942Z,66.52
2019-04-05T22:08:43.721Z,66.56
2019-04-05T22:11:15.347Z,66.73
2019-04-05T22:13:46.074Z,66.89
2019-04-05T22:16:19.476Z,67.12
2019-04-05T22:18:49.730Z,67.14
2019-04-05T22:21:21.833Z,67.45
2019-04-05T22:23:52.029Z,67.68
2019-04-05T22:26:22.199Z,67.75
2019-04-05T22:28:53.764Z,67.30
2019-04-05T22:31:24.515Z,67.79
2019-04-05T22:33:56.330Z,67.24
2019-04-05T22:36:26.983Z,67.43
2019-04-05T22:38:59.130Z,67.29
2019-04-05T22:41:29.554Z,67.19
2019-04-05T22:44:00.144Z,67.04
2019-04-05T22:46:33.061Z,66.77
2019-04-05T22:49:03.551Z,67.48
2019-04-05T22:51:33.854Z,67.99
2019-04-05T22:54:04.139Z,67.78
2019-04-05T22:56:34.319Z,68.30
2019-04-05T22:59:04.789Z,68.22
2019-04-05T23:01:35.092Z,68.24
2019-04-05T23:04:06.363Z,67.92
2019-04-05T23:06:37.358Z,67.83
2019-04-05T23:09:09.499Z,68.12
2019-04-05T23:11:39.851Z,68.26
2019-04-05T23:14:10.480Z,67.53
2019-04-05T23:16:40.725Z,67.80
2019-04-05T23:19:11.827Z,67.98
2019-04-05T23:21:42.018Z,67.84
2019-04-05T23:24:12.216Z,68.88
2019-04-05T23:26:42.420Z,68.45
2019-04-05T23:29:12.641Z,68.34
2019-04-05T23:31:42.932Z,68.03
2019-04-05T23:34:13.124Z,67.56
2019-04-05T23:36:43.644Z,67.41
2019-04-05T23:39:13.821Z,67.68
2019-04-05T23:41:44.047Z,68.22
2019-04-05T23:44:14.241Z,67.84
2019-04-05T23:46:44.456Z,67.89
2019-04-05T23:49:14.710Z,67.91
2019-04-05T23:51:44.880Z,67.86
2019-04-05T23:54:15.051Z,67.49
2019-04-05T23:56:47.075Z,67.45
2019-04-05T23:59:17.259Z,67.47
